Time;durP1;ratioP1;P1;durP2;ratioP2;P2;SDS_P1;SDS_P2;PMS_P1;PMS_P2;Temp;Humidity;BMP_temperature;BMP_pressure;BME280_temperature;BME280_humidity;BME280_pressure;Samples;Min_cycle;Max_cycle;Signal;HPM_P1;HPM_P2
2022/11/12 00:02:27;;;;;;;134.02;37.33;;;7.20;99.90;;;;;;5015768;28;20037;-85
2022/11/12 00:05:12;;;;;;;144.55;39.63;;;7.20;99.90;;;;;;5012375;28;20049;-86
2022/11/12 00:07:57;;;;;;;149.23;38.17;;;7.10;99.90;;;;;;5012079;28;20045;-86
2022/11/12 00:10:41;;;;;;;134.55;38.33;;;7.10;99.90;;;;;;5012266;28;20056;-86
2022/11/12 00:13:26;;;;;;;139.85;37.67;;;7.10;99.90;;;;;;5011454;28;20049;-87
2022/11/12 00:16:10;;;;;;;141.63;39.92;;;7.10;99.90;;;;;;5003908;28;20121;-87
2022/11/12 00:18:55;;;;;;;146.15;37.65;;;7.10;99.90;;;;;;5012601;28;20065;-86
2022/11/12 00:21:39;;;;;;;121.82;35.00;;;7.20;99.90;;;;;;5003213;28;20513;-88
2022/11/12 00:24:23;;;;;;;141.73;37.88;;;7.10;99.90;;;;;;5014445;28;20048;-85
2022/11/12 00:27:09;;;;;;;125.88;33.47;;;7.10;99.90;;;;;;5023807;28;20041;-85
2022/11/12 00:29:53;;;;;;;113.72;31.63;;;7.10;99.90;;;;;;5013747;28;20423;-84
2022/11/12 00:32:38;;;;;;;93.18;26.92;;;7.10;99.90;;;;;;5026353;28;20049;-84
2022/11/12 00:35:23;;;;;;;72.97;25.80;;;7.00;99.90;;;;;;5025396;28;20048;-85
2022/11/12 00:38:07;;;;;;;62.13;22.17;;;7.00;99.90;;;;;;5027010;28;20044;-85
2022/11/12 00:40:52;;;;;;;73.85;23.25;;;7.00;99.90;;;;;;5024214;28;20041;-87
2022/11/12 00:43:37;;;;;;;68.95;20.67;;;7.00;99.90;;;;;;5013568;28;20045;-86
2022/11/12 00:46:22;;;;;;;57.75;20.80;;;7.00;99.90;;;;;;5013189;28;20051;-86
2022/11/12 00:49:06;;;;;;;67.18;22.90;;;6.90;99.90;;;;;;5014091;28;20057;-88
2022/11/12 00:51:51;;;;;;;69.55;20.27;;;6.90;99.90;;;;;;5014921;28;20056;-86
2022/11/12 00:54:36;;;;;;;63.70;21.38;;;6.90;99.90;;;;;;5010986;28;20053;-86
2022/11/12 00:57:20;;;;;;;47.85;17.45;;;6.80;99.90;;;;;;5014068;28;20499;-85
2022/11/12 01:00:06;;;;;;;54.10;18.02;;;6.80;99.90;;;;;;5034781;28;20045;-85
2022/11/12 01:02:51;;;;;;;60.42;20.10;;;6.80;99.90;;;;;;5030933;28;20048;-87
2022/11/12 01:05:36;;;;;;;61.00;19.83;;;6.80;99.90;;;;;;5023920;28;20040;-86
2022/11/12 01:08:20;;;;;;;55.65;20.02;;;6.80;99.90;;;;;;5039295;28;20040;-82
2022/11/12 01:11:14;;;;;;;63.70;19.30;;;6.80;99.90;;;;;;5030370;28;20064;-86
2022/11/12 01:14:04;;;;;;;70.00;20.08;;;6.80;99.90;;;;;;5016033;28;20041;-85
2022/11/12 01:16:48;;;;;;;59.08;17.45;;;6.70;99.90;;;;;;5007471;28;20048;-83
2022/11/12 01:19:33;;;;;;;54.45;17.27;;;6.70;99.90;;;;;;5021324;28;20048;-85
2022/11/12 01:22:18;;;;;;;48.15;17.80;;;6.80;99.90;;;;;;5006417;28;20044;-80
2022/11/12 01:25:03;;;;;;;46.58;17.52;;;6.70;99.90;;;;;;5015211;28;20045;-85
2022/11/12 01:27:48;;;;;;;47.03;19.17;;;6.70;99.90;;;;;;5007045;28;20049;-86
2022/11/12 01:30:32;;;;;;;53.55;15.30;;;6.70;99.90;;;;;;5014323;28;20057;-85
2022/11/12 01:33:17;;;;;;;47.60;17.00;;;6.70;99.90;;;;;;5006836;28;20056;-85
2022/11/12 01:36:01;;;;;;;41.95;16.73;;;6.70;99.90;;;;;;4996681;28;20045;-85
2022/11/12 01:38:47;;;;;;;50.38;17.50;;;6.70;99.90;;;;;;4999381;28;20045;-84
2022/11/12 01:41:34;;;;;;;51.42;18.70;;;6.60;99.90;;;;;;5014255;28;20044;-84
2022/11/12 01:44:28;;;;;;;48.75;17.52;;;6.60;99.90;;;;;;5007758;28;20045;-82
2022/11/12 01:47:25;;;;;;;47.60;18.92;;;6.60;99.90;;;;;;4986489;28;20049;-84
2022/11/12 01:50:29;;;;;;;57.67;17.80;;;6.70;99.90;;;;;;4995172;28;20049;-85
2022/11/12 01:53:15;;;;;;;66.97;20.98;;;6.70;99.90;;;;;;4986920;28;20045;-84
2022/11/12 01:56:02;;;;;;;49.20;15.45;;;6.60;99.90;;;;;;4994919;28;20061;-83
2022/11/12 01:58:51;;;;;;;54.80;17.90;;;6.60;99.90;;;;;;4986404;28;20415;-86
2022/11/12 02:01:37;;;;;;;53.60;17.17;;;6.60;99.90;;;;;;4985729;28;20053;-84
2022/11/12 02:04:22;;;;;;;49.90;17.63;;;6.60;99.90;;;;;;4994266;28;20061;-81
2022/11/12 02:07:08;;;;;;;52.17;18.50;;;6.60;99.90;;;;;;4994837;28;20399;-86
2022/11/12 02:09:54;;;;;;;48.65;17.02;;;6.60;99.90;;;;;;4994682;28;20046;-83
2022/11/12 02:15:43;;;;;;;53.67;18.80;;;6.60;99.90;;;;;;4994486;28;20598;-83
2022/11/12 02:18:27;;;;;;;47.38;17.75;;;6.60;99.90;;;;;;4981165;28;20049;-82
2022/11/12 02:21:12;;;;;;;41.15;17.52;;;6.60;99.90;;;;;;4988846;28;20054;-87
2022/11/12 02:24:16;;;;;;;47.90;18.27;;;6.60;99.90;;;;;;4995372;28;20411;-87
2022/11/12 02:27:00;;;;;;;41.15;15.75;;;6.60;99.90;;;;;;4999157;28;20037;-85
2022/11/12 02:29:46;;;;;;;46.35;17.27;;;6.60;99.90;;;;;;4988507;28;20108;-86
2022/11/12 02:32:31;;;;;;;45.55;17.02;;;6.50;99.90;;;;;;4967085;28;20061;-86
2022/11/12 02:35:15;;;;;;;49.55;16.83;;;6.60;99.90;;;;;;4983994;28;20034;-85
2022/11/12 02:38:00;;;;;;;48.70;18.05;;;6.60;99.90;;;;;;4984892;28;20053;-87
2022/11/12 02:40:44;;;;;;;47.67;17.33;;;6.60;99.90;;;;;;4977361;28;20066;-87
2022/11/12 02:43:29;;;;;;;45.95;17.15;;;6.50;99.90;;;;;;4976096;28;20054;-87
2022/11/12 02:46:13;;;;;;;49.85;18.73;;;6.60;99.90;;;;;;4967639;28;20527;-88
2022/11/12 02:48:58;;;;;;;48.00;16.35;;;6.60;99.90;;;;;;4976145;28;20381;-84
2022/11/12 02:51:43;;;;;;;45.53;16.50;;;6.60;99.90;;;;;;4974932;28;20325;-89
2022/11/12 02:54:27;;;;;;;44.83;16.65;;;6.50;99.90;;;;;;4975274;28;20049;-87
2022/11/12 02:57:12;;;;;;;36.53;15.60;;;6.50;99.90;;;;;;4978079;28;20049;-85
2022/11/12 02:59:56;;;;;;;41.35;15.02;;;6.50;99.90;;;;;;4980708;28;20397;-88
2022/11/12 03:02:41;;;;;;;41.10;14.82;;;6.50;99.90;;;;;;4974281;28;20049;-91
2022/11/12 03:05:31;;;;;;;40.25;15.50;;;6.40;99.90;;;;;;4974129;28;20058;-81
2022/11/12 03:08:16;;;;;;;35.92;14.52;;;6.50;99.90;;;;;;4974638;28;20158;-87
2022/11/12 03:11:09;;;;;;;41.17;14.20;;;6.40;99.90;;;;;;4966389;28;20057;-88
2022/11/12 03:13:54;;;;;;;39.67;14.73;;;6.30;99.90;;;;;;4974156;28;20050;-89
2022/11/12 03:16:39;;;;;;;40.88;14.88;;;6.30;99.90;;;;;;4973586;28;20037;-88
2022/11/12 03:19:24;;;;;;;43.85;14.57;;;6.40;99.90;;;;;;4976401;28;20053;-78
2022/11/12 03:22:09;;;;;;;32.83;12.40;;;6.40;99.90;;;;;;4967575;28;20053;-88
2022/11/12 03:24:53;;;;;;;38.83;12.55;;;6.30;99.90;;;;;;4975335;28;20046;-86
2022/11/12 03:27:37;;;;;;;30.13;11.88;;;6.30;99.90;;;;;;4970982;28;20049;-89
2022/11/12 03:30:22;;;;;;;35.90;12.32;;;6.30;99.90;;;;;;4975625;28;20070;-88
2022/11/12 03:33:08;;;;;;;36.78;12.32;;;6.30;99.90;;;;;;4975561;28;20049;-85
2022/11/12 03:35:53;;;;;;;33.97;12.65;;;6.30;99.90;;;;;;4967049;28;20050;-87
2022/11/12 03:38:38;;;;;;;32.65;12.27;;;6.30;99.90;;;;;;4974540;28;20050;-87
2022/11/12 03:41:22;;;;;;;31.95;12.55;;;6.30;99.90;;;;;;4974681;28;20045;-91
2022/11/12 03:44:07;;;;;;;38.13;14.27;;;6.20;99.90;;;;;;4965816;28;20061;-89
2022/11/12 03:46:51;;;;;;;37.95;13.18;;;6.30;99.90;;;;;;4973409;28;20049;-86
2022/11/12 03:49:36;;;;;;;37.30;12.00;;;6.30;99.90;;;;;;4964854;28;20049;-90
2022/11/12 03:52:20;;;;;;;37.30;13.25;;;6.20;99.90;;;;;;4965278;28;20062;-86
2022/11/12 03:55:05;;;;;;;33.85;12.50;;;6.20;99.90;;;;;;4973206;28;20046;-87
2022/11/12 03:57:52;;;;;;;34.97;12.75;;;6.20;99.90;;;;;;4972598;28;20053;-86
2022/11/12 04:00:37;;;;;;;37.58;13.20;;;6.20;99.90;;;;;;4972429;28;20046;-83
2022/11/12 04:03:21;;;;;;;36.80;14.48;;;6.20;99.90;;;;;;4965362;28;20042;-89
2022/11/12 04:09:11;;;;;;;38.80;13.60;;;6.20;99.90;;;;;;4973496;28;20054;-85
2022/11/12 04:13:26;;;;;;;35.13;14.40;;;6.10;99.90;;;;;;4973152;28;20057;-88
2022/11/12 04:15:00;;;;;;;36.15;13.38;;;6.10;99.90;;;;;;4975120;28;20038;-86
2022/11/12 04:23:51;;;;;;;28.83;11.55;;;6.00;99.90;;;;;;4972453;28;20063;-84
2022/11/12 04:26:36;;;;;;;38.42;13.27;;;6.00;99.90;;;;;;4964415;28;20046;-86
2022/11/12 04:32:24;;;;;;;30.02;12.32;;;6.00;99.90;;;;;;4976564;28;20050;-89
2022/11/12 04:35:10;;;;;;;38.53;14.23;;;6.00;99.90;;;;;;4967330;28;20045;-88
2022/11/12 04:37:55;;;;;;;34.97;12.18;;;6.00;99.90;;;;;;4978385;28;20046;-89
2022/11/12 04:46:47;;;;;;;42.03;12.05;;;5.80;99.90;;;;;;4978131;28;20503;-89
2022/11/12 04:49:31;;;;;;;26.13;11.43;;;5.80;99.90;;;;;;4970067;28;20094;-81
2022/11/12 04:52:17;;;;;;;37.08;12.27;;;5.80;99.90;;;;;;4980274;28;20054;-87
2022/11/12 04:55:02;;;;;;;46.13;14.07;;;5.70;99.90;;;;;;4999402;28;20045;-86
2022/11/12 04:57:46;;;;;;;73.93;20.50;;;5.70;99.90;;;;;;4978280;28;20049;-88
2022/11/12 05:00:31;;;;;;;75.07;17.00;;;5.70;99.90;;;;;;4971792;28;20054;-82
2022/11/12 05:03:16;;;;;;;81.35;17.38;;;5.70;99.90;;;;;;4983561;28;20030;-90
2022/11/12 05:06:03;;;;;;;53.92;14.55;;;5.70;99.90;;;;;;4993218;28;20048;-89
2022/11/12 05:08:48;;;;;;;72.63;15.50;;;5.70;99.90;;;;;;4998203;28;20053;-90
2022/11/12 05:11:33;;;;;;;83.47;18.77;;;5.70;99.90;;;;;;4996841;28;20033;-82
2022/11/12 05:14:18;;;;;;;71.75;15.60;;;5.60;99.90;;;;;;5001139;28;20033;-88
2022/11/12 05:17:03;;;;;;;81.63;14.30;;;5.60;99.90;;;;;;5000576;28;20033;-87
2022/11/12 05:19:48;;;;;;;42.80;13.10;;;5.60;99.90;;;;;;5006134;28;20037;-84
2022/11/12 05:22:32;;;;;;;38.83;13.57;;;5.60;99.90;;;;;;5000067;28;20086;-80
2022/11/12 05:25:17;;;;;;;59.30;13.32;;;5.60;99.90;;;;;;4976547;28;20050;-90
2022/11/12 05:28:01;;;;;;;77.53;16.42;;;5.60;99.90;;;;;;4977013;28;20115;-89
2022/11/12 05:30:47;;;;;;;46.13;12.70;;;5.60;99.90;;;;;;4988027;28;20074;-89
2022/11/12 05:33:31;;;;;;;59.22;12.77;;;5.60;99.90;;;;;;4996632;28;20050;-86
2022/11/12 05:36:16;;;;;;;32.40;10.63;;;5.60;99.90;;;;;;4996705;28;20514;-88
2022/11/12 05:39:01;;;;;;;29.05;11.77;;;5.70;99.90;;;;;;5001996;28;20058;-88
2022/11/12 05:41:47;;;;;;;53.53;13.88;;;5.70;99.90;;;;;;4995006;28;20078;-89
2022/11/12 05:44:32;;;;;;;70.38;15.95;;;5.70;99.90;;;;;;4996775;28;20049;-81
2022/11/12 05:47:17;;;;;;;36.72;11.60;;;5.60;99.90;;;;;;5001815;28;20049;-88
2022/11/12 05:50:02;;;;;;;42.70;12.05;;;5.60;99.90;;;;;;4995864;28;20049;-88
2022/11/12 05:52:46;;;;;;;52.40;12.05;;;5.60;99.90;;;;;;4994864;28;20057;-89
2022/11/12 05:55:31;;;;;;;82.53;14.25;;;5.50;99.90;;;;;;4995645;28;20071;-89
2022/11/12 05:58:15;;;;;;;35.72;12.77;;;5.60;99.90;;;;;;4995033;28;20376;-88
2022/11/12 06:01:00;;;;;;;45.10;12.38;;;5.50;99.90;;;;;;4997788;28;20053;-86
2022/11/12 06:03:44;;;;;;;38.03;10.77;;;5.60;99.90;;;;;;4999148;28;20512;-88
2022/11/12 06:06:29;;;;;;;27.35;8.75;;;5.60;99.90;;;;;;4996510;28;20054;-90
2022/11/12 06:09:14;;;;;;;22.63;9.00;;;5.60;99.90;;;;;;4994858;28;20057;-90
2022/11/12 06:11:58;;;;;;;28.23;9.27;;;5.50;99.90;;;;;;4994344;28;20057;-88
2022/11/12 06:14:43;;;;;;;33.45;11.35;;;5.50;99.90;;;;;;4999645;28;20053;-89
2022/11/12 06:17:28;;;;;;;33.03;9.48;;;5.40;99.90;;;;;;4994849;28;20053;-89
2022/11/12 06:20:12;;;;;;;39.10;11.52;;;5.40;99.90;;;;;;4994820;28;20166;-88
2022/11/12 06:22:57;;;;;;;28.60;9.30;;;5.50;99.90;;;;;;4994191;28;20053;-88
2022/11/12 06:25:41;;;;;;;41.05;10.35;;;5.40;99.90;;;;;;4993760;28;20049;-88
2022/11/12 06:28:26;;;;;;;27.08;8.63;;;5.50;99.90;;;;;;5000039;28;20073;-89
2022/11/12 06:31:11;;;;;;;28.17;9.63;;;5.40;99.90;;;;;;4977845;28;20057;-88
2022/11/12 06:33:55;;;;;;;24.13;9.15;;;5.50;99.90;;;;;;4974283;28;20519;-90
2022/11/12 06:36:40;;;;;;;28.80;9.43;;;5.50;99.90;;;;;;4974680;28;20050;-88
2022/11/12 06:39:25;;;;;;;41.78;11.65;;;5.50;99.90;;;;;;4975748;28;20404;-90
2022/11/12 06:42:09;;;;;;;22.60;8.32;;;5.50;99.90;;;;;;4976966;28;20054;-90
2022/11/12 06:44:54;;;;;;;29.15;11.23;;;5.40;99.90;;;;;;4967966;28;20050;-90
2022/11/12 06:47:39;;;;;;;31.55;9.85;;;5.40;99.90;;;;;;4966333;28;20049;-82
2022/11/12 06:50:23;;;;;;;40.28;10.70;;;5.30;99.90;;;;;;4977463;28;20045;-90
2022/11/12 06:53:08;;;;;;;31.17;9.63;;;5.30;99.90;;;;;;4994086;28;20109;-91
2022/11/12 06:56:00;;;;;;;28.75;9.82;;;5.40;99.90;;;;;;4966544;28;20054;-90
2022/11/12 06:58:45;;;;;;;26.83;8.95;;;5.50;99.90;;;;;;4974020;28;20050;-90
2022/11/12 07:01:30;;;;;;;19.80;9.75;;;5.40;99.90;;;;;;4974930;28;20046;-87
2022/11/12 07:04:14;;;;;;;24.50;9.25;;;5.40;99.90;;;;;;4965653;28;20468;-87
2022/11/12 07:06:59;;;;;;;28.92;8.90;;;5.40;99.90;;;;;;4973611;28;20041;-86
2022/11/12 07:09:43;;;;;;;28.55;9.05;;;5.30;99.90;;;;;;4965353;28;20045;-84
2022/11/12 07:12:28;;;;;;;21.50;8.18;;;5.30;99.90;;;;;;4965907;28;20065;-85
2022/11/12 07:15:12;;;;;;;22.40;8.32;;;5.30;99.90;;;;;;4974208;28;20053;-85
2022/11/12 07:17:57;;;;;;;18.73;8.40;;;5.40;99.90;;;;;;4974263;28;20046;-85
2022/11/12 07:20:41;;;;;;;18.70;9.38;;;5.40;99.90;;;;;;4976509;28;20051;-80
2022/11/12 07:23:27;;;;;;;27.67;8.45;;;5.50;99.90;;;;;;4979356;28;20073;-87
2022/11/12 07:26:13;;;;;;;29.75;8.90;;;5.40;99.90;;;;;;4976578;28;20123;-88
2022/11/12 07:28:58;;;;;;;38.08;9.98;;;5.40;99.90;;;;;;4984334;28;20045;-89
2022/11/12 07:31:43;;;;;;;28.95;8.82;;;5.30;99.90;;;;;;5013615;28;20060;-82
2022/11/12 07:34:28;;;;;;;32.38;10.10;;;5.30;99.90;;;;;;5018977;28;20049;-88
2022/11/12 07:37:12;;;;;;;29.90;9.52;;;5.30;99.90;;;;;;5013418;28;20057;-87
2022/11/12 07:39:58;;;;;;;27.05;9.38;;;5.30;99.90;;;;;;5012107;28;20105;-87
2022/11/12 07:42:43;;;;;;;30.45;9.82;;;5.30;99.90;;;;;;5013092;28;20121;-81
2022/11/12 07:45:28;;;;;;;25.02;9.82;;;5.30;99.90;;;;;;5019257;28;20391;-86
2022/11/12 07:48:13;;;;;;;35.47;11.60;;;5.30;99.90;;;;;;5015163;28;20057;-87
2022/11/12 07:51:18;;;;;;;32.65;12.05;;;5.40;99.90;;;;;;5004464;28;20056;-87
2022/11/12 07:54:03;;;;;;;47.05;13.60;;;5.40;99.90;;;;;;5012078;28;20286;-86
2022/11/12 07:56:48;;;;;;;43.08;12.15;;;5.40;99.90;;;;;;5013011;28;20494;-88
2022/11/12 07:59:32;;;;;;;75.75;18.08;;;5.30;99.90;;;;;;5004503;28;20049;-89
2022/11/12 08:02:17;;;;;;;53.70;15.82;;;5.30;99.90;;;;;;5012773;28;20053;-88
2022/11/12 08:05:01;;;;;;;77.28;18.02;;;5.40;99.90;;;;;;5011815;28;20126;-87
2022/11/12 08:07:45;;;;;;;84.40;18.92;;;5.40;99.90;;;;;;5013232;28;20064;-88
2022/11/12 08:10:30;;;;;;;75.72;19.13;;;5.40;99.90;;;;;;5012745;28;20045;-89
2022/11/12 08:13:14;;;;;;;74.70;18.33;;;5.40;99.90;;;;;;5004884;28;20048;-88
2022/11/12 08:16:00;;;;;;;73.07;17.75;;;5.30;99.90;;;;;;5015444;28;20061;-88
2022/11/12 08:18:45;;;;;;;45.83;14.05;;;5.30;99.90;;;;;;5005011;28;20498;-80
2022/11/12 08:21:29;;;;;;;64.18;15.10;;;5.30;99.90;;;;;;5020692;28;20045;-86
2022/11/12 08:24:14;;;;;;;51.45;13.70;;;5.40;99.90;;;;;;5020681;28;20510;-88
2022/11/12 08:26:59;;;;;;;44.67;16.55;;;5.50;99.90;;;;;;5010217;28;20048;-89
2022/11/12 08:29:44;;;;;;;54.05;14.60;;;5.60;99.90;;;;;;5031270;28;20064;-81
2022/11/12 08:32:29;;;;;;;44.13;13.93;;;5.60;99.90;;;;;;5037649;28;20048;-81
2022/11/12 08:35:13;;;;;;;36.20;11.98;;;5.50;99.90;;;;;;5012589;28;20044;-84
2022/11/12 08:38:04;;;;;;;28.50;12.63;;;5.60;99.90;;;;;;5015484;28;20048;-83
2022/11/12 08:40:49;;;;;;;35.42;14.27;;;5.70;99.90;;;;;;5016052;28;20053;-84
2022/11/12 08:43:34;;;;;;;43.35;15.40;;;5.80;99.90;;;;;;5017315;28;20048;-78
2022/11/12 08:46:18;;;;;;;46.88;16.67;;;5.70;99.90;;;;;;5016075;28;20044;-81
2022/11/12 08:49:03;;;;;;;54.90;19.63;;;5.60;99.90;;;;;;5030563;28;20250;-83
2022/11/12 08:51:48;;;;;;;66.30;22.67;;;5.60;99.90;;;;;;5017411;28;20403;-79
2022/11/12 08:54:33;;;;;;;61.58;18.73;;;5.60;99.90;;;;;;5020139;28;20041;-84
2022/11/12 08:57:17;;;;;;;54.15;19.50;;;5.60;99.90;;;;;;5008763;28;20395;-85
2022/11/12 09:00:02;;;;;;;51.42;17.52;;;5.60;99.90;;;;;;5017659;28;20049;-84
2022/11/12 09:02:47;;;;;;;45.88;17.17;;;5.60;99.90;;;;;;5019057;28;20506;-79
2022/11/12 09:05:34;;;;;;;54.50;17.15;;;5.60;99.90;;;;;;5019106;28;20053;-75
2022/11/12 09:08:21;;;;;;;50.40;16.08;;;5.60;99.90;;;;;;5019502;28;20049;-84
2022/11/12 09:11:07;;;;;;;42.72;13.63;;;5.60;99.90;;;;;;5018809;28;20493;-83
2022/11/12 09:13:52;;;;;;;51.80;14.20;;;5.50;99.90;;;;;;5017932;28;20398;-86
2022/11/12 09:16:37;;;;;;;35.13;15.43;;;5.60;99.90;;;;;;5016550;28;20041;-86
2022/11/12 09:19:21;;;;;;;28.67;12.13;;;5.60;99.90;;;;;;5016528;28;20049;-85
2022/11/12 09:22:06;;;;;;;33.03;12.82;;;5.60;99.90;;;;;;5006549;28;20053;-84
2022/11/12 09:24:50;;;;;;;30.52;12.80;;;5.70;99.90;;;;;;5016158;28;20049;-86
2022/11/12 09:27:35;;;;;;;32.58;12.40;;;5.70;99.90;;;;;;5023201;28;20045;-85
2022/11/12 09:30:20;;;;;;;32.35;12.57;;;5.60;99.90;;;;;;5031194;28;20060;-85
2022/11/12 09:33:06;;;;;;;23.48;10.82;;;5.70;99.90;;;;;;5031393;28;20314;-85
2022/11/12 09:35:52;;;;;;;34.45;12.80;;;5.70;99.90;;;;;;5032792;28;20052;-77
2022/11/12 09:38:36;;;;;;;26.70;11.75;;;5.70;99.90;;;;;;5039524;28;20075;-81
2022/11/12 09:41:31;;;;;;;37.40;11.07;;;5.70;99.90;;;;;;5021252;28;20057;-83
2022/11/12 09:44:19;;;;;;;29.60;10.23;;;5.60;99.90;;;;;;5015448;28;20069;-83
2022/11/12 09:47:17;;;;;;;22.20;11.07;;;5.80;99.90;;;;;;5005893;28;20123;-83
2022/11/12 09:50:13;;;;;;;25.83;10.93;;;5.80;99.90;;;;;;5005634;28;20407;-80
2022/11/12 09:53:17;;;;;;;27.98;12.00;;;5.80;99.90;;;;;;5014454;28;20073;-83
2022/11/12 09:56:09;;;;;;;27.30;11.60;;;5.90;99.90;;;;;;5005476;28;20045;-82
2022/11/12 09:58:55;;;;;;;28.33;11.43;;;5.90;99.90;;;;;;5013458;28;20037;-82
2022/11/12 10:01:53;;;;;;;20.20;10.05;;;5.90;99.90;;;;;;5014533;28;20053;-83
2022/11/12 10:04:58;;;;;;;39.88;20.65;;;5.90;99.90;;;;;;5014279;28;20056;-83
2022/11/12 10:07:58;;;;;;;25.23;12.98;;;5.90;99.90;;;;;;4986361;28;20061;-85
2022/11/12 10:10:59;;;;;;;26.98;13.60;;;6.00;99.90;;;;;;5014078;28;20049;-83
2022/11/12 10:14:00;;;;;;;28.50;13.73;;;6.00;99.90;;;;;;5014928;28;20391;-85
2022/11/12 10:17:07;;;;;;;29.67;13.15;;;6.00;99.90;;;;;;5020556;28;20044;-86
2022/11/12 10:20:13;;;;;;;30.13;13.10;;;6.10;99.90;;;;;;5010344;28;20061;-82
2022/11/12 10:23:18;;;;;;;28.25;11.57;;;6.10;99.90;;;;;;5013329;28;20052;-88
2022/11/12 10:26:13;;;;;;;21.15;11.52;;;6.10;99.90;;;;;;5014942;28;20045;-87
2022/11/12 10:29:10;;;;;;;31.65;18.02;;;6.30;99.90;;;;;;5014755;28;20049;-87
2022/11/12 10:31:55;;;;;;;39.90;18.60;;;6.30;99.90;;;;;;5005249;28;20133;-86
2022/11/12 10:34:39;;;;;;;25.88;12.95;;;6.20;99.90;;;;;;5014458;28;20057;-90
2022/11/12 10:37:42;;;;;;;33.40;13.07;;;6.20;99.90;;;;;;5014338;28;20086;-86
2022/11/12 10:40:30;;;;;;;24.05;12.30;;;6.00;99.90;;;;;;5015121;28;20057;-86
2022/11/12 10:43:14;;;;;;;26.85;12.60;;;6.00;99.90;;;;;;5007949;28;20057;-87
2022/11/12 10:46:17;;;;;;;24.08;12.10;;;6.00;99.90;;;;;;5017600;28;20037;-87
2022/11/12 10:49:15;;;;;;;23.67;12.98;;;6.10;99.90;;;;;;5017031;28;20057;-88
2022/11/12 10:51:59;;;;;;;27.58;13.10;;;6.00;99.90;;;;;;5015527;28;20053;-85
2022/11/12 10:54:44;;;;;;;27.83;12.38;;;6.00;99.90;;;;;;5018400;28;20045;-88
2022/11/12 10:57:28;;;;;;;25.65;14.48;;;6.10;99.90;;;;;;5023585;28;20048;-87
2022/11/12 11:00:13;;;;;;;34.45;17.30;;;6.10;99.90;;;;;;5030838;28;20105;-89
2022/11/12 11:03:00;;;;;;;24.88;13.38;;;6.30;99.90;;;;;;5011023;28;20053;-89
2022/11/12 11:05:59;;;;;;;22.95;13.70;;;6.30;99.90;;;;;;5005899;28;20387;-77
2022/11/12 11:08:46;;;;;;;25.35;12.68;;;6.40;99.90;;;;;;5015125;28;20089;-81
2022/11/12 11:11:31;;;;;;;24.02;15.73;;;6.30;99.90;;;;;;5013328;28;20048;-82
2022/11/12 11:14:22;;;;;;;17.92;11.07;;;6.10;99.90;;;;;;5012346;28;20125;-84
2022/11/12 11:17:16;;;;;;;21.63;11.27;;;6.20;99.90;;;;;;5012208;28;20045;-84
2022/11/12 11:20:02;;;;;;;18.33;11.40;;;6.20;99.90;;;;;;5003818;28;20049;-84
2022/11/12 11:23:20;;;;;;;19.20;11.50;;;6.20;99.90;;;;;;5004490;28;20510;-84
2022/11/12 11:26:36;;;;;;;21.15;11.48;;;6.30;99.90;;;;;;5003146;28;20387;-85
2022/11/12 11:29:55;;;;;;;21.38;11.73;;;6.30;99.90;;;;;;5012504;28;20037;-85
2022/11/12 11:32:43;;;;;;;22.48;11.90;;;6.30;99.90;;;;;;5012720;28;20089;-87
2022/11/12 11:35:39;;;;;;;19.35;11.45;;;6.30;99.90;;;;;;5013202;28;20045;-84
2022/11/12 11:38:44;;;;;;;20.85;10.65;;;6.20;99.90;;;;;;5012432;28;20049;-84
2022/11/12 11:41:43;;;;;;;21.63;12.93;;;6.30;99.90;;;;;;5004351;28;20065;-84
2022/11/12 11:44:46;;;;;;;21.80;12.05;;;6.40;99.90;;;;;;5012656;28;20057;-85
2022/11/12 11:47:42;;;;;;;23.27;13.50;;;6.40;99.90;;;;;;5012886;28;20049;-84
2022/11/12 11:50:41;;;;;;;29.35;15.88;;;6.40;99.90;;;;;;5004270;28;20491;-84
2022/11/12 11:53:33;;;;;;;21.90;13.38;;;6.50;99.90;;;;;;5029814;28;20052;-83
2022/11/12 11:56:32;;;;;;;21.10;12.75;;;6.40;99.90;;;;;;5033556;28;20202;-83
2022/11/12 11:59:26;;;;;;;22.65;13.02;;;6.40;99.90;;;;;;5013125;28;20575;-83
2022/11/12 12:02:14;;;;;;;19.85;11.65;;;6.40;99.90;;;;;;5011863;28;20419;-83
2022/11/12 12:05:01;;;;;;;23.42;12.43;;;6.40;99.90;;;;;;5011744;28;20049;-80
2022/11/12 12:08:14;;;;;;;21.10;13.73;;;6.40;99.90;;;;;;5012119;28;20104;-83
2022/11/12 12:11:02;;;;;;;24.63;14.05;;;6.50;99.90;;;;;;5011324;28;20037;-80
2022/11/12 12:14:04;;;;;;;18.77;12.52;;;6.70;99.90;;;;;;5012194;28;20053;-83
2022/11/12 12:17:10;;;;;;;20.17;12.57;;;6.70;99.90;;;;;;5003884;28;20403;-84
2022/11/12 12:20:14;;;;;;;19.67;12.52;;;6.70;99.90;;;;;;5012323;28;20057;-83
2022/11/12 12:23:04;;;;;;;22.67;14.02;;;6.60;99.90;;;;;;5012625;28;20053;-81
2022/11/12 12:25:50;;;;;;;23.00;12.70;;;6.70;99.90;;;;;;5012387;28;20411;-81
2022/11/12 12:28:53;;;;;;;19.65;11.60;;;6.50;99.90;;;;;;5012256;28;20113;-81
2022/11/12 12:31:44;;;;;;;21.88;12.70;;;6.30;99.90;;;;;;5012023;28;20511;-81
2022/11/12 12:34:38;;;;;;;22.05;12.02;;;6.40;99.90;;;;;;5011677;28;20060;-81
2022/11/12 12:37:40;;;;;;;18.20;12.20;;;6.40;99.90;;;;;;5011722;28;20048;-83
2022/11/12 12:40:34;;;;;;;19.58;12.38;;;6.40;99.90;;;;;;5011724;28;20065;-83
2022/11/12 12:43:27;;;;;;;22.20;12.20;;;6.50;99.90;;;;;;5011144;28;20049;-83
2022/11/12 12:46:15;;;;;;;22.67;12.02;;;6.50;99.90;;;;;;5011325;28;20052;-83
2022/11/12 12:49:03;;;;;;;21.60;13.48;;;6.50;99.90;;;;;;5011836;28;20053;-80
2022/11/12 12:51:48;;;;;;;24.00;13.95;;;6.50;99.90;;;;;;5004409;28;20395;-82
2022/11/12 12:54:36;;;;;;;21.70;14.85;;;6.60;99.90;;;;;;5012043;28;20044;-82
2022/11/12 12:57:33;;;;;;;29.08;17.42;;;6.70;99.90;;;;;;5010831;28;20626;-82
2022/11/12 13:00:33;;;;;;;28.35;15.85;;;6.80;99.90;;;;;;5010965;28;20045;-82
2022/11/12 13:03:43;;;;;;;28.05;16.33;;;6.60;99.90;;;;;;5014101;28;20627;-82
2022/11/12 13:06:30;;;;;;;30.02;18.60;;;6.80;99.90;;;;;;5015439;28;20068;-83
2022/11/12 13:09:14;;;;;;;26.05;15.52;;;6.80;99.90;;;;;;5014597;28;20060;-81
2022/11/12 13:14:53;;;;;;;25.73;15.23;;;6.60;99.90;;;;;;5015045;28;20045;-82
2022/11/12 13:17:43;;;;;;;24.50;15.48;;;6.60;99.90;;;;;;5015318;28;20387;-82
2022/11/12 13:20:34;;;;;;;27.35;14.55;;;6.60;99.90;;;;;;5015220;28;20049;-82
2022/11/12 13:24:07;;;;;;;;;;;6.60;99.90;;;;;;5021654;28;20057;-82
2022/11/12 13:26:54;;;;;;;23.02;14.20;;;6.60;99.90;;;;;;4984887;28;19920;-81
2022/11/12 13:29:41;;;;;;;24.08;15.48;;;6.50;99.90;;;;;;5020671;28;20502;-82
2022/11/12 13:32:29;;;;;;;24.25;14.93;;;6.50;99.90;;;;;;5014880;28;20049;-81
2022/11/12 13:35:24;;;;;;;23.50;15.00;;;6.60;99.90;;;;;;5014438;28;20069;-81
2022/11/12 13:38:12;;;;;;;21.75;13.27;;;6.70;99.90;;;;;;5014172;28;20037;-81
2022/11/12 13:41:13;;;;;;;22.88;14.50;;;6.60;99.90;;;;;;5007125;28;20045;-82
2022/11/12 13:44:03;;;;;;;23.70;15.13;;;6.60;99.90;;;;;;5020127;28;20056;-83
2022/11/12 13:46:50;;;;;;;19.83;12.50;;;6.50;99.90;;;;;;5018065;28;20044;-83
2022/11/12 13:49:36;;;;;;;24.00;13.77;;;6.60;99.90;;;;;;5044573;28;20036;-82
2022/11/12 13:52:21;;;;;;;22.83;16.58;;;6.60;99.90;;;;;;5038040;28;20067;-83
2022/11/12 13:55:14;;;;;;;23.75;14.57;;;6.50;99.90;;;;;;5013798;28;20053;-81
2022/11/12 13:57:59;;;;;;;20.80;12.82;;;6.40;99.90;;;;;;5016515;28;20053;-84
2022/11/12 14:00:56;;;;;;;23.38;13.88;;;6.30;99.90;;;;;;5015831;28;20045;-83
2022/11/12 14:03:45;;;;;;;23.17;14.85;;;6.40;99.90;;;;;;5014262;28;20056;-84
2022/11/12 14:06:33;;;;;;;24.92;14.38;;;6.50;99.90;;;;;;5014109;28;20049;-82
2022/11/12 14:09:41;;;;;;;25.27;14.65;;;6.50;99.90;;;;;;5013489;28;20037;-83
2022/11/12 14:12:51;;;;;;;27.17;16.48;;;6.40;99.90;;;;;;5013214;28;20057;-83
2022/11/12 14:16:07;;;;;;;22.65;13.52;;;6.40;99.90;;;;;;5014033;28;20041;-83
2022/11/12 14:19:07;;;;;;;25.85;15.55;;;6.40;99.90;;;;;;5014039;28;20056;-84
2022/11/12 14:22:21;;;;;;;32.95;17.50;;;6.40;99.90;;;;;;5014076;28;20045;-84
2022/11/12 14:25:24;;;;;;;27.27;15.75;;;6.30;99.90;;;;;;5005036;28;20053;-80
2022/11/12 14:28:28;;;;;;;25.75;15.25;;;6.30;99.90;;;;;;5013065;28;20476;-83
2022/11/12 14:31:14;;;;;;;25.83;15.93;;;6.40;99.90;;;;;;4998836;28;20057;-83
2022/11/12 14:34:19;;;;;;;36.20;17.48;;;6.50;99.90;;;;;;5008776;28;20053;-83
2022/11/12 14:37:03;;;;;;;27.65;16.70;;;6.50;99.90;;;;;;5013782;28;20060;-81
2022/11/12 14:39:48;;;;;;;28.60;16.95;;;6.40;99.90;;;;;;5013920;28;20045;-84
2022/11/12 14:42:34;;;;;;;31.02;17.10;;;6.40;99.90;;;;;;5013355;28;20045;-84
2022/11/12 14:45:21;;;;;;;34.10;19.27;;;6.40;99.90;;;;;;5012855;28;20403;-83
2022/11/12 14:48:08;;;;;;;35.15;18.27;;;6.50;99.90;;;;;;5013109;28;20057;-80
2022/11/12 14:51:12;;;;;;;29.55;18.60;;;6.50;99.90;;;;;;5005182;28;20048;-83
2022/11/12 14:54:05;;;;;;;33.92;18.67;;;6.40;99.90;;;;;;5013435;28;20076;-84